createdAt,value
2023-05-10T00:01:00.907Z,91.7569
2023-05-10T00:02:04.160Z,91.3275
2023-05-10T00:03:07.643Z,92.0700
2023-05-10T00:04:10.870Z,92.4968
2023-05-10T00:05:14.129Z,92.6481
2023-05-10T00:06:15.490Z,92.9833
2023-05-10T00:07:18.723Z,92.9683
2023-05-10T00:08:22.157Z,92.9821
2023-05-10T00:09:25.376Z,93.2752
2023-05-10T00:10:28.616Z,92.8877
2023-05-10T00:11:32.021Z,93.6192
2023-05-10T00:12:35.228Z,93.1356
2023-05-10T00:13:38.892Z,93.5331
2023-05-10T00:14:42.086Z,93.7469
2023-05-10T00:15:45.311Z,93.9666
2023-05-10T00:16:48.690Z,94.2561
2023-05-10T00:17:51.938Z,93.9350
2023-05-10T00:18:55.383Z,93.6231
2023-05-10T00:19:58.609Z,94.1637
2023-05-10T00:21:02.058Z,94.2789
2023-05-10T00:22:05.292Z,94.2187
2023-05-10T00:23:08.538Z,94.5042
2023-05-10T00:24:11.972Z,94.0387
2023-05-10T00:25:15.203Z,94.2609
2023-05-10T00:26:18.622Z,94.4772
2023-05-10T00:27:21.851Z,94.4997
2023-05-10T00:28:25.078Z,94.7179
2023-05-10T00:29:28.316Z,93.3767
2023-05-10T00:30:31.543Z,93.7679
2023-05-10T00:31:35.117Z,94.0598
2023-05-10T00:32:38.354Z,94.5227
2023-05-10T00:33:41.593Z,95.0288
2023-05-10T00:34:44.829Z,95.2349
2023-05-10T00:35:48.035Z,94.7343
2023-05-10T00:36:51.309Z,94.8159
2023-05-10T00:37:54.494Z,95.3380
2023-05-10T00:38:55.774Z,95.3884
2023-05-10T00:39:59.052Z,95.3335
2023-05-10T00:41:02.646Z,95.2842
2023-05-10T00:42:05.901Z,95.6321
2023-05-10T00:43:09.117Z,94.4938
2023-05-10T00:44:09.630Z,94.3087
2023-05-10T00:45:12.956Z,95.0929
2023-05-10T00:46:16.604Z,95.8241
2023-05-10T00:47:19.897Z,96.2678
2023-05-10T00:48:23.141Z,96.0570
2023-05-10T00:49:26.397Z,96.4912
2023-05-10T00:50:29.617Z,96.8031
2023-05-10T00:51:32.882Z,96.9401
2023-05-10T00:52:36.124Z,96.9410
2023-05-10T00:53:39.378Z,97.0880
2023-05-10T00:54:42.611Z,97.1090
2023-05-10T00:55:45.835Z,96.7705
2023-05-10T00:56:49.071Z,96.6412
2023-05-10T00:57:52.294Z,96.7044
2023-05-10T00:58:55.743Z,96.3770
2023-05-10T00:59:58.947Z,96.5572
2023-05-10T01:01:02.207Z,96.7369
2023-05-10T01:02:05.791Z,96.4011
2023-05-10T01:03:09.151Z,96.4775
2023-05-10T01:04:12.480Z,96.3574
2023-05-10T01:05:15.749Z,96.0470
2023-05-10T01:06:19.236Z,96.1147
2023-05-10T01:07:22.488Z,96.5151
2023-05-10T01:08:25.709Z,96.7501
2023-05-10T01:09:28.949Z,96.7441
2023-05-10T01:10:32.168Z,96.9706
2023-05-10T01:11:35.687Z,96.9526
2023-05-10T01:12:39.115Z,97.1520
2023-05-10T01:13:42.338Z,97.2105
2023-05-10T01:14:45.562Z,97.0117
2023-05-10T01:15:48.791Z,96.6523
2023-05-10T01:16:51.984Z,96.7858
2023-05-10T01:17:55.220Z,96.4045
2023-05-10T01:18:58.687Z,96.4327
2023-05-10T01:20:01.923Z,96.6585
2023-05-10T01:21:05.110Z,96.4540
2023-05-10T01:22:08.610Z,96.1794
2023-05-10T01:23:11.844Z,96.1225
2023-05-10T01:24:15.034Z,96.0046
2023-05-10T01:25:18.262Z,95.8868
2023-05-10T01:26:21.462Z,95.7548
2023-05-10T01:27:24.688Z,95.7461
2023-05-10T01:28:27.926Z,95.7388
2023-05-10T01:29:31.408Z,95.7213
2023-05-10T01:30:34.616Z,95.6811
2023-05-10T01:31:37.874Z,95.6865
2023-05-10T01:32:41.069Z,95.5798
2023-05-10T01:33:44.320Z,95.6868
2023-05-10T01:34:47.768Z,96.1387
2023-05-10T01:35:51.336Z,96.2027
2023-05-10T01:36:54.549Z,96.4674
2023-05-10T01:37:57.811Z,96.0263
2023-05-10T01:39:01.301Z,96.0163
2023-05-10T01:40:04.566Z,96.0651
2023-05-10T01:41:07.770Z,96.2076
2023-05-10T01:42:10.980Z,96.1626
2023-05-10T01:43:14.226Z,96.2110
2023-05-10T01:44:17.674Z,95.8378
2023-05-10T01:45:20.876Z,96.0290
2023-05-10T01:46:24.139Z,96.5401
2023-05-10T01:47:27.367Z,96.4085
2023-05-10T01:48:30.588Z,95.8650
2023-05-10T01:49:34.053Z,95.8341
2023-05-10T01:50:37.256Z,95.2671
2023-05-10T01:51:41.470Z,95.2913
2023-05-10T01:52:41.005Z,95.5171
2023-05-10T01:53:44.231Z,95.7662
2023-05-10T01:54:47.481Z,95.4981
2023-05-10T01:55:50.697Z,95.4198
2023-05-10T01:56:54.140Z,95.4048
2023-05-10T01:57:57.359Z,95.7062
2023-05-10T01:59:00.548Z,95.9007
2023-05-10T02:00:03.772Z,95.9241
2023-05-10T02:01:07.093Z,95.2801
2023-05-10T02:02:10.308Z,95.3902
2023-05-10T02:03:13.564Z,95.9713
2023-05-10T02:04:16.752Z,96.3502
2023-05-10T02:05:30.849Z,96.6946
2023-05-10T02:06:34.039Z,97.0313
2023-05-10T02:07:37.518Z,97.4997
2023-05-10T02:08:40.744Z,97.8177
2023-05-10T02:09:44.314Z,98.1066
2023-05-10T02:10:47.726Z,98.4100
2023-05-10T02:11:50.932Z,98.5714
2023-05-10T02:12:54.201Z,98.3671
2023-05-10T02:13:57.404Z,98.2099
2023-05-10T02:15:00.640Z,98.3720
2023-05-10T02:16:03.840Z,98.2357
2023-05-10T02:17:07.055Z,98.6618
2023-05-10T02:18:10.368Z,98.8720
2023-05-10T02:19:13.566Z,98.6097
2023-05-10T02:20:17.222Z,98.2186
2023-05-10T02:21:20.597Z,98.3767
2023-05-10T02:22:23.825Z,98.7920
2023-05-10T02:23:27.053Z,98.9518
2023-05-10T02:24:30.248Z,98.7033
2023-05-10T02:25:33.703Z,98.3806
2023-05-10T02:26:36.887Z,98.5157
2023-05-10T02:27:40.392Z,98.7168
2023-05-10T02:28:43.610Z,98.9029
2023-05-10T02:29:46.812Z,98.9002
2023-05-10T02:30:50.009Z,98.7863
2023-05-10T02:31:53.228Z,98.4010
2023-05-10T02:32:56.457Z,98.3627
2023-05-10T02:33:59.644Z,98.4738
2023-05-10T02:35:00.803Z,98.6636
2023-05-10T02:36:04.024Z,98.6257
2023-05-10T02:37:07.241Z,98.6224
2023-05-10T02:38:10.796Z,98.6771
2023-05-10T02:39:13.990Z,98.6125
2023-05-10T02:40:17.462Z,98.5374
2023-05-10T02:41:20.783Z,98.5583
2023-05-10T02:42:24.005Z,98.6831
2023-05-10T02:43:27.233Z,98.4990
2023-05-10T02:44:30.446Z,98.5265
2023-05-10T02:45:33.666Z,98.7063
2023-05-10T02:46:36.894Z,98.5604
2023-05-10T02:47:40.123Z,98.6201
2023-05-10T02:48:43.392Z,98.8009
2023-05-10T02:49:46.595Z,98.9506
2023-05-10T02:50:50.146Z,98.9899
2023-05-10T02:51:53.341Z,98.5980
2023-05-10T02:52:56.823Z,98.8872
2023-05-10T02:54:00.046Z,99.0506
2023-05-10T02:55:03.521Z,99.1552
2023-05-10T02:56:06.714Z,99.2267
2023-05-10T02:57:09.948Z,99.3486
2023-05-10T02:58:13.211Z,99.3553
2023-05-10T02:59:16.466Z,99.2966
2023-05-10T03:00:19.915Z,99.1385
2023-05-10T03:01:23.177Z,99.1718
2023-05-10T03:02:26.403Z,99.2922
2023-05-10T03:03:29.942Z,99.1752
2023-05-10T03:04:33.196Z,99.0180
2023-05-10T03:05:36.382Z,98.8042
2023-05-10T03:06:39.662Z,99.0980
2023-05-10T03:07:42.877Z,99.0931
2023-05-10T03:08:46.058Z,98.9342
2023-05-10T03:09:49.268Z,99.0570
2023-05-10T03:10:52.718Z,99.2436
2023-05-10T03:11:55.923Z,99.2795
2023-05-10T03:12:59.411Z,99.1733
2023-05-10T03:14:02.611Z,99.2817
2023-05-10T03:15:05.851Z,99.2275
2023-05-10T03:16:09.112Z,99.2378
2023-05-10T03:17:12.315Z,99.2226
2023-05-10T03:18:15.507Z,99.1539
2023-05-10T03:19:18.711Z,98.9636
2023-05-10T03:20:20.035Z,98.9461
2023-05-10T03:21:23.255Z,99.0210
2023-05-10T03:22:26.490Z,99.1067
2023-05-10T03:23:29.695Z,99.1838
2023-05-10T03:24:32.922Z,99.3087
2023-05-10T03:25:36.204Z,99.2102
2023-05-10T03:26:39.440Z,99.2305
2023-05-10T03:27:42.650Z,99.3487
2023-05-10T03:28:45.873Z,99.4753
2023-05-10T03:29:49.102Z,99.4878
2023-05-10T03:30:52.451Z,99.0159
2023-05-10T03:31:55.819Z,99.2533
2023-05-10T03:32:59.302Z,99.0037
2023-05-10T03:34:02.582Z,98.9250
2023-05-10T03:35:05.792Z,98.7962
2023-05-10T03:36:09.244Z,99.1152
2023-05-10T03:37:12.485Z,99.0734
2023-05-10T03:38:16.021Z,99.1323
2023-05-10T03:39:19.232Z,99.1583
2023-05-10T03:40:22.673Z,99.1514
2023-05-10T03:41:25.873Z,99.3463
2023-05-10T03:42:29.061Z,99.3353
2023-05-10T03:43:32.498Z,99.1327
2023-05-10T03:44:35.732Z,99.3186
2023-05-10T03:45:39.038Z,99.2870
2023-05-10T03:46:42.501Z,99.3496
2023-05-10T03:47:45.749Z,99.4592
2023-05-10T03:48:48.967Z,99.4096
2023-05-10T03:49:52.199Z,99.4492
2023-05-10T03:50:55.595Z,99.4121
2023-05-10T03:51:58.767Z,99.1385
2023-05-10T03:53:02.223Z,99.2327
2023-05-10T03:54:05.427Z,99.4739
2023-05-10T03:55:08.659Z,99.5018
2023-05-10T03:56:11.897Z,99.6402
2023-05-10T03:57:15.090Z,99.5953
2023-05-10T03:58:18.569Z,99.5037
2023-05-10T03:59:21.785Z,99.6914
2023-05-10T04:00:25.024Z,99.6628
2023-05-10T04:01:28.221Z,99.7270
2023-05-10T04:02:31.545Z,99.7151
2023-05-10T04:03:34.885Z,99.7393
2023-05-10T04:04:38.066Z,99.5534
2023-05-10T04:05:41.302Z,99.4551
2023-05-10T04:06:44.512Z,99.2727
2023-05-10T04:07:47.730Z,99.0594
2023-05-10T04:08:50.959Z,99.0218
2023-05-10T04:09:54.150Z,99.0924
2023-05-10T04:10:57.375Z,99.2155
2023-05-10T04:12:00.602Z,98.9461
2023-05-10T04:13:03.827Z,98.9014
2023-05-10T04:14:07.090Z,99.0496
2023-05-10T04:15:10.296Z,99.1768
2023-05-10T04:16:13.489Z,99.1707
2023-05-10T04:17:16.895Z,99.0165
2023-05-10T04:18:20.381Z,98.8332
2023-05-10T04:19:23.605Z,98.8234
2023-05-10T04:20:26.823Z,99.0224
2023-05-10T04:21:30.268Z,99.0639
2023-05-10T04:22:33.418Z,99.0724
2023-05-10T04:23:36.862Z,99.1673
2023-05-10T04:24:40.082Z,99.1156
2023-05-10T04:25:43.286Z,99.1539
2023-05-10T04:26:46.487Z,99.1338
2023-05-10T04:27:49.735Z,98.9224
2023-05-10T04:28:52.944Z,98.9846
2023-05-10T04:29:56.177Z,98.7055
2023-05-10T04:30:59.437Z,98.5463
2023-05-10T04:32:02.605Z,98.4725
2023-05-10T04:33:05.850Z,98.5431
2023-05-10T04:34:09.324Z,98.5207
2023-05-10T04:35:12.548Z,98.3796
2023-05-10T04:36:15.787Z,98.4876
2023-05-10T04:37:19.033Z,98.7618
2023-05-10T04:38:22.524Z,98.7115
2023-05-10T04:39:25.753Z,98.7651
2023-05-10T04:40:28.992Z,98.8892
2023-05-10T04:41:32.454Z,98.6050
2023-05-10T04:42:35.659Z,98.6768
2023-05-10T04:43:38.882Z,98.7635
2023-05-10T04:44:42.048Z,98.2712
2023-05-10T04:45:45.273Z,98.0318
2023-05-10T04:46:48.798Z,97.7006
2023-05-10T04:47:51.995Z,98.0194
2023-05-10T04:48:55.202Z,97.8113
2023-05-10T04:49:58.422Z,97.7577
2023-05-10T04:51:01.686Z,97.2690
2023-05-10T04:52:04.901Z,97.6266
2023-05-10T04:53:08.156Z,97.4026
2023-05-10T04:54:11.365Z,97.4336
2023-05-10T04:55:14.608Z,97.6715
2023-05-10T04:56:17.836Z,97.6824
2023-05-10T04:57:21.046Z,97.0368
2023-05-10T04:58:24.252Z,96.4411
2023-05-10T04:59:27.716Z,96.8287
2023-05-10T05:00:30.894Z,96.4825
2023-05-10T05:01:34.178Z,96.4625
2023-05-10T05:02:37.483Z,96.5123
2023-05-10T05:03:40.842Z,96.7069
2023-05-10T05:04:44.058Z,96.6827
2023-05-10T05:05:47.285Z,96.1512
2023-05-10T05:06:53.662Z,96.0372
2023-05-10T05:07:53.374Z,96.0060
2023-05-10T05:08:56.639Z,96.2550
2023-05-10T05:09:59.874Z,96.1428
2023-05-10T05:11:03.066Z,96.0196
2023-05-10T05:12:06.294Z,95.5527
2023-05-10T05:13:09.500Z,95.7274
2023-05-10T05:14:12.670Z,95.6798
2023-05-10T05:15:15.907Z,94.6478
2023-05-10T05:16:19.170Z,93.7943
2023-05-10T05:17:22.377Z,94.0829
2023-05-10T05:18:25.599Z,94.3070
2023-05-10T05:19:29.071Z,94.6263
2023-05-10T05:20:32.292Z,94.7481
2023-05-10T05:21:35.490Z,94.8103
2023-05-10T05:22:38.701Z,95.3085
2023-05-10T05:23:41.936Z,95.5028
2023-05-10T05:24:45.137Z,95.4569
2023-05-10T05:25:48.364Z,95.5696
2023-05-10T05:26:51.616Z,95.6172
2023-05-10T05:27:54.837Z,95.7712
2023-05-10T05:28:58.077Z,96.0220
2023-05-10T05:30:01.298Z,96.3614
2023-05-10T05:31:04.473Z,96.3696
2023-05-10T05:32:07.756Z,96.6068
2023-05-10T05:33:11.029Z,96.8189
2023-05-10T05:34:14.211Z,96.5293
2023-05-10T05:35:17.572Z,96.1281
2023-05-10T05:36:20.925Z,96.1734
2023-05-10T05:37:24.154Z,96.1270
2023-05-10T05:38:27.361Z,96.2479
2023-05-10T05:39:30.802Z,96.0953
2023-05-10T05:40:34.003Z,96.4394
2023-05-10T05:41:37.198Z,96.3870
2023-05-10T05:42:40.445Z,96.5647
2023-05-10T05:43:43.690Z,96.1435
2023-05-10T05:44:47.062Z,96.0815
2023-05-10T05:45:50.403Z,96.1924
2023-05-10T05:46:53.614Z,96.3044
2023-05-10T05:47:56.858Z,96.0266
2023-05-10T05:49:00.034Z,95.8830
2023-05-10T05:50:03.316Z,95.8144
2023-05-10T05:51:07.406Z,95.8390
2023-05-10T05:52:07.271Z,95.3459
2023-05-10T05:53:10.492Z,95.2976
2023-05-10T05:54:13.671Z,95.3335
2023-05-10T05:55:17.213Z,95.6236
2023-05-10T05:56:20.492Z,95.4854
2023-05-10T05:57:23.713Z,94.9003
2023-05-10T05:58:26.948Z,95.1786
2023-05-10T05:59:30.202Z,95.4007
2023-05-10T06:00:33.397Z,95.3307
2023-05-10T06:01:36.614Z,95.1023
2023-05-10T06:02:40.010Z,94.6705
2023-05-10T06:03:43.405Z,94.9445
2023-05-10T06:04:46.616Z,95.0833
2023-05-10T06:05:49.872Z,95.2670
2023-05-10T06:06:53.093Z,95.3382
2023-05-10T06:07:56.328Z,94.8426
2023-05-10T06:08:59.576Z,94.8556
2023-05-10T06:10:02.820Z,94.7513
2023-05-10T06:11:05.994Z,94.7850
2023-05-10T06:12:09.547Z,94.8950
2023-05-10T06:13:12.803Z,94.9142
2023-05-10T06:14:16.296Z,95.1161
2023-05-10T06:15:19.504Z,95.2362
2023-05-10T06:16:22.776Z,95.2230
2023-05-10T06:17:26.007Z,95.2144
2023-05-10T06:18:29.235Z,95.0589
2023-05-10T06:19:32.586Z,94.9126
2023-05-10T06:20:35.800Z,94.1743
2023-05-10T06:21:39.036Z,92.8358
2023-05-10T06:22:42.240Z,93.0448
2023-05-10T06:23:45.467Z,92.8845
2023-05-10T06:24:48.709Z,91.7869
2023-05-10T06:25:51.952Z,91.1529
2023-05-10T06:26:55.189Z,91.8353
2023-05-10T06:27:58.547Z,92.0392
2023-05-10T06:29:01.778Z,91.6528
2023-05-10T06:30:12.339Z,91.7234
2023-05-10T06:31:06.812Z,91.5667
2023-05-10T06:32:10.045Z,89.9877
2023-05-10T06:33:13.358Z,91.2168
2023-05-10T06:34:16.603Z,90.1118
2023-05-10T06:35:20.209Z,88.7717
2023-05-10T06:36:23.803Z,89.2264
2023-05-10T06:37:27.075Z,89.4449
2023-05-10T06:38:30.340Z,89.7722
2023-05-10T06:39:33.805Z,89.8960
2023-05-10T06:40:37.053Z,90.4414
2023-05-10T06:41:40.340Z,91.0019
2023-05-10T06:42:43.588Z,91.1179
2023-05-10T06:43:46.815Z,91.8274
2023-05-10T06:44:50.099Z,91.8889
2023-05-10T06:45:53.412Z,90.8643
2023-05-10T06:46:56.672Z,91.9497
2023-05-10T06:47:59.949Z,92.6252
2023-05-10T06:49:03.202Z,92.3293
2023-05-10T06:50:06.458Z,92.0938
2023-05-10T06:51:09.704Z,92.1503
2023-05-10T06:52:13.183Z,92.3489
2023-05-10T06:53:16.709Z,92.5588
2023-05-10T06:54:19.933Z,92.4650
2023-05-10T06:55:23.152Z,91.5453
2023-05-10T06:56:26.380Z,91.1395
2023-05-10T06:57:31.744Z,91.4602
2023-05-10T06:58:31.784Z,92.1479
2023-05-10T06:59:35.167Z,91.8450
2023-05-10T07:00:38.540Z,91.3821
2023-05-10T07:01:41.807Z,91.7858
2023-05-10T07:02:45.037Z,91.3639
2023-05-10T07:03:48.296Z,91.5948
2023-05-10T07:04:51.606Z,91.2438
2023-05-10T07:05:54.808Z,91.2973
2023-05-10T07:06:58.291Z,91.0793
2023-05-10T07:08:01.527Z,90.4933
2023-05-10T07:09:04.802Z,90.8151
2023-05-10T07:10:08.261Z,90.7453
2023-05-10T07:11:11.506Z,90.1019
2023-05-10T07:12:15.868Z,90.2273
2023-05-10T07:13:15.752Z,90.1666
2023-05-10T07:14:19.317Z,90.0920
2023-05-10T07:15:22.572Z,89.4844
2023-05-10T07:16:25.826Z,88.9935
2023-05-10T07:17:29.144Z,89.3839
2023-05-10T07:18:32.493Z,89.3955
2023-05-10T07:19:35.710Z,89.6766
2023-05-10T07:20:38.942Z,89.8220
2023-05-10T07:21:42.186Z,89.9869
2023-05-10T07:22:45.687Z,89.8545
2023-05-10T07:23:48.918Z,89.4394
2023-05-10T07:24:52.176Z,89.3011
2023-05-10T07:25:55.406Z,89.3509
2023-05-10T07:26:58.921Z,89.7527
2023-05-10T07:28:02.147Z,89.4281
2023-05-10T07:29:05.406Z,89.4369
2023-05-10T07:30:08.881Z,88.8372
2023-05-10T07:31:12.151Z,88.0477
2023-05-10T07:32:15.455Z,88.5479
2023-05-10T07:33:18.852Z,88.8486
2023-05-10T07:34:22.114Z,88.4814
2023-05-10T07:35:25.646Z,89.1106
2023-05-10T07:36:28.904Z,89.2919
2023-05-10T07:37:32.162Z,89.2745
2023-05-10T07:38:35.413Z,89.0069
2023-05-10T07:39:38.733Z,88.0550
2023-05-10T07:40:41.968Z,88.4044
2023-05-10T07:41:45.291Z,88.7914
2023-05-10T07:42:48.488Z,89.3256
2023-05-10T07:43:51.747Z,89.6243
2023-05-10T07:44:54.995Z,89.9757
2023-05-10T07:45:58.238Z,89.8459
2023-05-10T07:47:01.478Z,89.4244
2023-05-10T07:48:04.748Z,89.1716
2023-05-10T07:49:08.016Z,89.6143
2023-05-10T07:50:11.260Z,89.4230
2023-05-10T07:51:14.557Z,88.8851
2023-05-10T07:52:17.833Z,89.1533
2023-05-10T07:53:21.139Z,89.0755
2023-05-10T07:54:24.398Z,88.9178
2023-05-10T07:55:27.643Z,89.3199
2023-05-10T07:56:30.866Z,88.6909
2023-05-10T07:57:34.376Z,87.3103
2023-05-10T07:58:37.644Z,86.8691
2023-05-10T07:59:40.882Z,85.8039
2023-05-10T08:00:44.122Z,86.4837
2023-05-10T08:01:47.380Z,86.7576
2023-05-10T08:02:50.967Z,86.5097
2023-05-10T08:03:54.372Z,85.6484
2023-05-10T08:04:57.784Z,85.8221
2023-05-10T08:06:01.028Z,85.9161
2023-05-10T08:07:04.309Z,85.0374
2023-05-10T08:08:07.543Z,84.9033
2023-05-10T08:09:10.791Z,84.5056
2023-05-10T08:10:14.299Z,84.9354
2023-05-10T08:11:17.532Z,85.1256
2023-05-10T08:12:21.066Z,84.9253
2023-05-10T08:13:24.289Z,84.3089
2023-05-10T08:14:27.557Z,84.1229
2023-05-10T08:15:30.819Z,84.7087
2023-05-10T08:16:34.141Z,83.7959
2023-05-10T08:17:37.399Z,83.5185
2023-05-10T08:18:40.726Z,83.4861
2023-05-10T08:19:43.938Z,83.3556
2023-05-10T08:20:47.162Z,83.8501
2023-05-10T08:21:50.471Z,83.2002
2023-05-10T08:22:53.720Z,83.4181
2023-05-10T08:23:56.972Z,83.3316
2023-05-10T08:25:00.195Z,83.3279
2023-05-10T08:26:03.458Z,83.3563
2023-05-10T08:27:06.735Z,83.2186
2023-05-10T08:28:11.335Z,83.0154
2023-05-10T08:29:11.472Z,82.2209
2023-05-10T08:30:14.731Z,81.2776
2023-05-10T08:31:18.008Z,81.2936
2023-05-10T08:32:21.222Z,80.5583
2023-05-10T08:33:24.471Z,81.0564
2023-05-10T08:34:27.878Z,81.2671
2023-05-10T08:35:31.126Z,80.9903
2023-05-10T08:36:34.395Z,80.2991
2023-05-10T08:37:37.635Z,79.3445
2023-05-10T08:38:40.845Z,80.3446
2023-05-10T08:39:44.372Z,80.2675
2023-05-10T08:40:47.591Z,80.1339
2023-05-10T08:41:50.829Z,79.1331
2023-05-10T08:42:54.115Z,80.2065
2023-05-10T08:43:57.394Z,79.8622
2023-05-10T08:45:00.955Z,80.0861
2023-05-10T08:46:04.284Z,79.3299
2023-05-10T08:47:07.730Z,79.1529
2023-05-10T08:48:11.157Z,79.1512
2023-05-10T08:49:14.371Z,77.2075
2023-05-10T08:50:17.639Z,77.8274
2023-05-10T08:51:20.887Z,77.9455
2023-05-10T08:52:24.154Z,78.1324
2023-05-10T08:53:27.391Z,77.1155
2023-05-10T08:54:30.657Z,78.9549
2023-05-10T08:55:34.139Z,78.3432
2023-05-10T08:56:37.366Z,78.5225
2023-05-10T08:57:40.623Z,78.6477
2023-05-10T08:58:43.899Z,78.5958
2023-05-10T08:59:47.103Z,78.8301
2023-05-10T09:00:50.358Z,78.7565
2023-05-10T09:01:53.569Z,78.5183
2023-05-10T09:02:56.846Z,77.4916
2023-05-10T09:04:00.200Z,77.7072
2023-05-10T09:05:03.771Z,77.7090
2023-05-10T09:06:07.065Z,78.5005
2023-05-10T09:07:10.293Z,78.5096
2023-05-10T09:08:13.568Z,78.4453
2023-05-10T09:09:16.851Z,78.6007
2023-05-10T09:10:20.095Z,78.5585
2023-05-10T09:11:23.348Z,79.0222
2023-05-10T09:12:26.568Z,79.5489
2023-05-10T09:13:29.832Z,79.0865
2023-05-10T09:14:33.073Z,78.8758
2023-05-10T09:15:36.570Z,78.9584
2023-05-10T09:16:39.973Z,78.3483
2023-05-10T09:17:43.343Z,78.2821
2023-05-10T09:18:46.655Z,78.3027
2023-05-10T09:19:49.900Z,78.7461
2023-05-10T09:20:53.180Z,78.7027
2023-05-10T09:21:56.393Z,78.8691
2023-05-10T09:22:59.874Z,78.7760
2023-05-10T09:24:03.148Z,79.6472
2023-05-10T09:25:06.391Z,78.8629
2023-05-10T09:26:09.667Z,78.5586
2023-05-10T09:27:12.922Z,79.2798
2023-05-10T09:28:16.492Z,78.8623
2023-05-10T09:29:19.745Z,79.2748
2023-05-10T09:30:23.019Z,78.6808
2023-05-10T09:31:26.332Z,78.1812
2023-05-10T09:32:29.562Z,75.9218
2023-05-10T09:33:32.801Z,76.3694
2023-05-10T09:34:36.048Z,76.1805
2023-05-10T09:35:39.528Z,76.6061
2023-05-10T09:36:42.796Z,77.1161
2023-05-10T09:37:46.632Z,77.2817
2023-05-10T09:38:46.202Z,77.8818
2023-05-10T09:39:49.455Z,77.2506
2023-05-10T09:40:52.728Z,78.0483
2023-05-10T09:41:55.960Z,78.2079
2023-05-10T09:42:59.429Z,78.1922
2023-05-10T09:44:02.682Z,78.8732
2023-05-10T09:45:05.952Z,76.9140
2023-05-10T09:46:09.359Z,78.1281
2023-05-10T09:47:12.612Z,78.0315
2023-05-10T09:48:15.849Z,78.3826
2023-05-10T09:49:19.105Z,77.3977
2023-05-10T09:50:22.387Z,77.2507
2023-05-10T09:51:25.610Z,77.6705
2023-05-10T09:52:28.885Z,77.9926
2023-05-10T09:53:32.275Z,77.3218
2023-05-10T09:54:35.491Z,76.9006
2023-05-10T09:55:38.742Z,77.2323
2023-05-10T09:56:42.015Z,76.5650
2023-05-10T09:57:45.245Z,75.7830
2023-05-10T09:58:48.509Z,75.4375
2023-05-10T09:59:51.732Z,75.3439
2023-05-10T10:00:55.035Z,75.2606
2023-05-10T10:01:58.360Z,75.1494
2023-05-10T10:03:01.585Z,74.7071
2023-05-10T10:04:04.836Z,74.7919
2023-05-10T10:05:08.240Z,75.6363
2023-05-10T10:06:22.700Z,76.2062
2023-05-10T10:07:13.302Z,76.8853
2023-05-10T10:08:16.814Z,76.3237
2023-05-10T10:09:20.058Z,75.1593
2023-05-10T10:10:23.301Z,73.6329
2023-05-10T10:11:26.564Z,72.8344
2023-05-10T10:12:29.805Z,72.3010
2023-05-10T10:13:33.286Z,73.0480
2023-05-10T10:14:36.551Z,73.8629
2023-05-10T10:15:39.778Z,72.6578
2023-05-10T10:16:55.514Z,72.1419
2023-05-10T10:17:44.878Z,71.6020
2023-05-10T10:18:48.167Z,70.8093
2023-05-10T10:19:51.442Z,71.1049
2023-05-10T10:20:52.793Z,71.7231
2023-05-10T10:21:56.063Z,72.1160
2023-05-10T10:22:59.273Z,71.8167
2023-05-10T10:24:02.571Z,71.1846
2023-05-10T10:25:05.839Z,69.0078
2023-05-10T10:26:09.384Z,70.4384
2023-05-10T10:27:12.601Z,70.1115
2023-05-10T10:28:15.869Z,69.1960
2023-05-10T10:29:19.121Z,69.4317
2023-05-10T10:30:22.714Z,68.4829
2023-05-10T10:31:25.988Z,68.3987
2023-05-10T10:32:29.277Z,67.6792
2023-05-10T10:33:32.629Z,68.4297
2023-05-10T10:34:35.888Z,69.1054
2023-05-10T10:35:39.142Z,69.7499
2023-05-10T10:36:42.410Z,68.3432
2023-05-10T10:37:45.642Z,66.8473
2023-05-10T10:38:48.876Z,66.4689
2023-05-10T10:39:52.125Z,65.9845
2023-05-10T10:40:55.383Z,66.4068
2023-05-10T10:41:58.620Z,68.1559
2023-05-10T10:43:02.113Z,67.2001
2023-05-10T10:44:05.348Z,68.3320
2023-05-10T10:45:08.600Z,66.5972
2023-05-10T10:46:11.899Z,66.2753
2023-05-10T10:47:15.168Z,68.3646
2023-05-10T10:48:18.454Z,65.8646
2023-05-10T10:49:21.700Z,64.8117
2023-05-10T10:50:24.952Z,66.0256
2023-05-10T10:51:28.206Z,66.5925
2023-05-10T10:52:31.477Z,66.7374
2023-05-10T10:53:35.067Z,65.9061
2023-05-10T10:54:38.328Z,67.4849
2023-05-10T10:55:41.573Z,65.6282
2023-05-10T10:56:44.836Z,65.6488
2023-05-10T10:57:48.108Z,65.7815
2023-05-10T10:58:51.573Z,66.0706
2023-05-10T10:59:54.803Z,64.6858
2023-05-10T11:00:58.067Z,65.7603
2023-05-10T11:02:01.272Z,66.8084
2023-05-10T11:03:04.539Z,68.0394
2023-05-10T11:04:08.535Z,67.8036
2023-05-10T11:05:08.093Z,67.4968
2023-05-10T11:06:11.344Z,67.8915
2023-05-10T11:07:14.598Z,68.2275
2023-05-10T11:08:15.654Z,68.5922
2023-05-10T11:09:18.919Z,68.5000
2023-05-10T11:10:22.153Z,68.1314
2023-05-10T11:11:25.394Z,67.9376
2023-05-10T11:12:28.673Z,68.5449
2023-05-10T11:13:31.970Z,68.5905
2023-05-10T11:14:35.242Z,66.8618
2023-05-10T11:15:38.491Z,66.8947
2023-05-10T11:16:41.764Z,67.4876
2023-05-10T11:17:45.017Z,67.5395
2023-05-10T11:18:50.271Z,68.2105
2023-05-10T11:19:49.849Z,68.1838
2023-05-10T11:20:53.335Z,67.4553
2023-05-10T11:21:56.602Z,68.4767
2023-05-10T11:22:59.874Z,68.6494
2023-05-10T11:24:03.119Z,68.3321
2023-05-10T11:25:06.366Z,68.4351
2023-05-10T11:26:09.610Z,67.9405
2023-05-10T11:27:12.876Z,67.0460
2023-05-10T11:28:16.158Z,66.5800
2023-05-10T11:29:19.380Z,66.9290
2023-05-10T11:30:22.648Z,68.0031
2023-05-10T11:31:25.976Z,66.8711
2023-05-10T11:32:29.226Z,65.8223
2023-05-10T11:33:32.530Z,65.3648
2023-05-10T11:34:35.823Z,64.7916
2023-05-10T11:35:40.997Z,64.6795
2023-05-10T11:36:41.957Z,65.7978
2023-05-10T11:37:45.181Z,64.2080
2023-05-10T11:38:48.441Z,65.2416
2023-05-10T11:39:51.709Z,64.5347
2023-05-10T11:40:54.970Z,65.6047
2023-05-10T11:41:58.262Z,67.7424
2023-05-10T11:43:01.513Z,67.5429
2023-05-10T11:44:04.735Z,66.5384
2023-05-10T11:45:08.006Z,64.5898
2023-05-10T11:46:11.534Z,64.2202
2023-05-10T11:47:14.789Z,65.1400
2023-05-10T11:48:18.049Z,64.5761
2023-05-10T11:49:21.284Z,63.7523
2023-05-10T11:50:24.530Z,62.5086
2023-05-10T11:51:28.031Z,61.9438
2023-05-10T11:52:31.235Z,62.5500
2023-05-10T11:53:34.493Z,62.8368
2023-05-10T11:54:37.754Z,63.6379
2023-05-10T11:55:41.049Z,63.7036
2023-05-10T11:56:44.302Z,62.0429
2023-05-10T11:57:47.525Z,63.6208
2023-05-10T11:58:50.803Z,63.3643
2023-05-10T11:59:54.065Z,62.7090
2023-05-10T12:00:57.337Z,61.5451
2023-05-10T12:02:00.622Z,61.4316
2023-05-10T12:03:04.063Z,61.4366
2023-05-10T12:04:07.532Z,61.5558
2023-05-10T12:05:11.010Z,61.0424
2023-05-10T12:06:14.292Z,60.7662
2023-05-10T12:07:17.541Z,60.3443
2023-05-10T12:08:20.823Z,60.6138
2023-05-10T12:10:24.041Z,58.5871
2023-05-10T12:11:25.328Z,59.1539
2023-05-10T12:12:28.598Z,59.1077
2023-05-10T12:13:31.870Z,60.5207
2023-05-10T12:14:35.124Z,61.0562
2023-05-10T12:15:38.395Z,61.5878
2023-05-10T12:16:42.067Z,61.2293
2023-05-10T12:17:45.376Z,61.7980
2023-05-10T12:18:48.682Z,61.8142
2023-05-10T12:19:51.918Z,61.0066
2023-05-10T12:20:55.160Z,60.7373
2023-05-10T12:21:58.403Z,60.7393
2023-05-10T12:23:01.640Z,61.4073
2023-05-10T12:24:05.127Z,60.9058
2023-05-10T12:25:08.473Z,61.3357
2023-05-10T12:26:11.746Z,61.7592
2023-05-10T12:27:14.973Z,63.4942
2023-05-10T12:28:18.226Z,69.3564
2023-05-10T12:29:21.457Z,73.6026
2023-05-10T12:30:24.729Z,74.6002
2023-05-10T12:31:28.063Z,73.8701
2023-05-10T12:32:31.404Z,72.0711
2023-05-10T12:33:34.847Z,73.2392
2023-05-10T12:34:38.143Z,74.6085
2023-05-10T12:35:43.090Z,75.6668
2023-05-10T12:36:42.681Z,76.5912
2023-05-10T12:37:45.895Z,76.9380
2023-05-10T12:38:49.202Z,74.9887
2023-05-10T12:39:52.435Z,75.6638
2023-05-10T12:40:55.729Z,74.2501
2023-05-10T12:41:58.928Z,76.2424
2023-05-10T12:43:02.215Z,77.4534
2023-05-10T12:44:03.405Z,76.0503
2023-05-10T12:45:06.657Z,77.0022
2023-05-10T12:46:09.996Z,77.7048